Time;durP1;ratioP1;P1;durP2;ratioP2;P2;SDS_P1;SDS_P2;PMS_P1;PMS_P2;Temp;Humidity;BMP_temperature;BMP_pressure;BME280_temperature;BME280_humidity;BME280_pressure;Samples;Min_cycle;Max_cycle;Signal;HPM_P1;HPM_P2
2022/07/28 00:01:28;;;;;;;;;;;;;;;30.03;29.31;98995.50;4389478;32;34223;-85
2022/07/28 00:03:55;;;;;;;;;;;;;;;29.84;29.64;98999.56;4390558;32;34339;-84
2022/07/28 00:06:23;;;;;;;;;;;;;;;30.11;29.37;98986.94;4390395;32;33346;-86
2022/07/28 00:08:50;;;;;;;;;;;;;;;28.92;30.54;98990.53;4390579;32;33993;-84
2022/07/28 00:11:17;;;;;;;;;;;;;;;29.57;29.49;98990.66;4390623;32;34527;-84
2022/07/28 00:13:44;;;;;;;;;;;;;;;29.65;29.23;98995.47;4390480;32;35184;-84
2022/07/28 00:16:12;;;;;;;;;;;;;;;29.75;29.11;98990.38;4390204;32;33772;-84
2022/07/28 00:18:39;;;;;;;;;;;;;;;30.19;28.44;98989.09;4390599;32;34093;-84
2022/07/28 00:21:06;;;;;;;;;;;;;;;30.52;27.97;98989.34;4390332;32;34260;-84
2022/07/28 00:23:34;;;;;;;;;;;;;;;30.88;27.56;98984.16;4390193;32;33848;-86
2022/07/28 00:26:06;;;;;;;;;;;;;;;31.03;27.90;98985.69;4389978;32;33414;-86
2022/07/28 00:28:34;;;;;;;;;;;;;;;31.41;27.80;98982.84;4390216;32;34440;-84
2022/07/28 00:31:01;;;;;;;;;;;;;;;31.18;27.91;98979.19;4390201;32;35283;-86
2022/07/28 00:33:34;;;;;;;;;;;;;;;31.12;28.00;98968.94;4389976;32;35245;-86
2022/07/28 00:36:01;;;;;;;;;;;;;;;31.35;27.19;98972.59;4389960;32;33333;-85
2022/07/28 00:38:28;;;;;;;;;;;;;;;31.42;27.47;98970.31;4389872;32;34189;-84
2022/07/28 00:41:12;;;;;;;;;;;;;;;31.56;26.98;98974.59;4389941;32;34051;-84
2022/07/28 00:43:39;;;;;;;;;;;;;;;31.75;26.84;98974.91;4390209;32;34032;-86
2022/07/28 00:46:07;;;;;;;;;;;;;;;31.53;27.04;98973.00;4389843;32;33385;-84
2022/07/28 00:48:38;;;;;;;;;;;;;;;31.50;26.87;98966.06;4390039;32;34281;-85
2022/07/28 00:51:07;;;;;;;;;;;;;;;31.61;26.78;98965.22;4389968;32;35669;-86
2022/07/28 00:53:36;;;;;;;;;;;;;;;31.64;26.99;98958.78;4389669;32;35158;-86
2022/07/28 00:56:04;;;;;;;;;;;;;;;31.55;27.22;98963.00;4389949;32;34306;-85
2022/07/28 00:58:33;;;;;;;;;;;;;;;31.57;27.14;98965.59;4376528;32;34206;-85
2022/07/28 01:01:01;;;;;;;;;;;;;;;31.36;27.24;98965.41;4389813;32;34140;-85
2022/07/28 01:03:28;;;;;;;;;;;;;;;31.43;27.00;98964.81;4389517;32;34136;-85
2022/07/28 01:05:58;;;;;;;;;;;;;;;31.61;26.86;98964.37;4389763;32;34284;-85
2022/07/28 01:08:30;;;;;;;;;;;;;;;31.62;26.84;98961.56;4389450;32;34029;-85
2022/07/28 01:11:05;;;;;;;;;;;;;;;31.16;27.39;98961.53;4376062;32;34189;-84
2022/07/28 01:13:32;;;;;;;;;;;;;;;30.94;27.60;98965.81;4377941;32;34234;-85
2022/07/28 01:16:03;;;;;;;;;;;;;;;31.07;27.36;98964.91;4391852;32;33459;-85
2022/07/28 01:18:32;;;;;;;;;;;;;;;31.41;27.01;98960.56;4378049;32;35156;-84
2022/07/28 01:21:04;;;;;;;;;;;;;;;31.46;26.88;98967.25;4377939;32;35330;-84
2022/07/28 01:23:31;;;;;;;;;;;;;;;31.65;26.90;98965.84;4377196;32;34555;-84
2022/07/28 01:26:07;;;;;;;;;;;;;;;31.71;27.01;98968.06;4391928;32;33628;-84
2022/07/28 01:28:53;;;;;;;;;;;;;;;31.71;26.80;98965.37;4378228;32;34092;-84
2022/07/28 01:31:22;;;;;;;;;;;;;;;31.71;26.82;98968.06;4391718;32;34363;-85
2022/07/28 01:33:51;;;;;;;;;;;;;;;31.54;26.86;98971.19;4377909;32;35173;-85
2022/07/28 01:36:20;;;;;;;;;;;;;;;31.81;26.50;98965.50;4391416;32;33581;-85
2022/07/28 01:38:47;;;;;;;;;;;;;;;31.30;27.03;98979.25;4377797;32;33924;-85
2022/07/28 01:41:16;;;;;;;;;;;;;;;31.14;27.44;98980.41;4391606;32;35269;-85
2022/07/28 01:43:44;;;;;;;;;;;;;;;31.06;27.55;98973.88;4391318;32;34608;-84
2022/07/28 01:46:11;;;;;;;;;;;;;;;30.76;27.90;98983.22;4377675;32;33767;-84
2022/07/28 01:48:40;;;;;;;;;;;;;;;31.01;27.64;98984.94;4377769;32;35586;-85
2022/07/28 01:51:07;;;;;;;;;;;;;;;30.90;27.85;98993.78;4377447;32;35217;-83
2022/07/28 01:53:34;;;;;;;;;;;;;;;30.77;27.89;98990.31;4378052;32;34424;-85
2022/07/28 01:56:04;;;;;;;;;;;;;;;30.87;27.76;98975.25;4378267;32;33449;-85
2022/07/28 01:58:31;;;;;;;;;;;;;;;30.75;27.96;98982.38;4391525;32;34256;-85
2022/07/28 02:00:58;;;;;;;;;;;;;;;30.64;28.14;98973.38;4377114;32;33831;-85
2022/07/28 02:03:26;;;;;;;;;;;;;;;30.57;28.37;98982.81;4377824;32;34484;-85
2022/07/28 02:05:54;;;;;;;;;;;;;;;30.56;28.27;98973.94;4377724;32;33519;-85
2022/07/28 02:08:21;;;;;;;;;;;;;;;30.54;28.39;98971.37;4371597;32;34353;-85
2022/07/28 02:13:36;;;;;;;;;;;;;;;30.60;28.33;98967.41;4379820;32;34305;-85
2022/07/28 02:16:06;;;;;;;;;;;;;;;30.37;28.58;98954.84;4378189;32;34552;-85
2022/07/28 02:18:34;;;;;;;;;;;;;;;30.33;28.73;98964.06;4377718;32;34359;-85
2022/07/28 02:21:01;;;;;;;;;;;;;;;30.31;28.77;98956.16;4376887;32;34185;-84
2022/07/28 02:23:28;;;;;;;;;;;;;;;30.28;28.72;98967.06;4365102;32;34167;-85
2022/07/28 02:25:56;;;;;;;;;;;;;;;30.25;28.86;98969.94;4376203;32;34380;-84
2022/07/28 02:28:23;;;;;;;;;;;;;;;30.16;28.95;98970.59;4374800;32;34978;-85
2022/07/28 02:30:57;;;;;;;;;;;;;;;30.04;29.14;98972.28;4377466;32;34041;-86
2022/07/28 02:33:24;;;;;;;;;;;;;;;30.11;29.12;98968.22;4391569;32;34148;-85
2022/07/28 02:36:31;;;;;;;;;;;;;;;30.21;28.90;98968.47;4379646;32;33677;-85
2022/07/28 02:39:06;;;;;;;;;;;;;;;30.19;28.99;98975.72;4377871;32;33992;-85
2022/07/28 02:41:36;;;;;;;;;;;;;;;30.15;29.09;98977.72;4377155;32;34034;-86
2022/07/28 02:44:06;;;;;;;;;;;;;;;30.17;29.16;98975.84;4377409;32;34864;-85
2022/07/28 02:46:37;;;;;;;;;;;;;;;29.96;29.42;98978.16;4391174;32;33729;-85
2022/07/28 02:49:07;;;;;;;;;;;;;;;29.90;29.47;98978.63;4365414;32;32802;-85
2022/07/28 02:51:34;;;;;;;;;;;;;;;29.93;29.38;98982.88;4377273;32;34039;-84
2022/07/28 02:54:02;;;;;;;;;;;;;;;29.94;29.38;98992.63;4391323;32;35054;-84
2022/07/28 02:56:29;;;;;;;;;;;;;;;29.86;29.54;98986.97;4377452;32;34006;-84
2022/07/28 02:58:56;;;;;;;;;;;;;;;29.80;29.71;98985.56;4390776;32;34239;-85
2022/07/28 03:01:24;;;;;;;;;;;;;;;29.69;29.85;98985.44;4390676;32;35411;-85
2022/07/28 03:03:51;;;;;;;;;;;;;;;29.74;29.84;98983.31;4377235;32;35284;-85
2022/07/28 03:06:22;;;;;;;;;;;;;;;29.85;29.89;98991.41;4390963;32;33498;-84
2022/07/28 03:08:55;;;;;;;;;;;;;;;30.04;29.54;98997.22;4378205;32;34319;-84
2022/07/28 03:11:23;;;;;;;;;;;;;;;30.11;29.47;98994.09;4390439;32;34305;-84
2022/07/28 03:13:50;;;;;;;;;;;;;;;30.10;29.52;98995.91;4390866;32;34461;-83
2022/07/28 03:16:17;;;;;;;;;;;;;;;30.09;29.60;98999.56;4390836;32;34276;-85
2022/07/28 03:18:45;;;;;;;;;;;;;;;30.08;29.63;99002.34;4389406;32;35178;-85
2022/07/28 03:21:12;;;;;;;;;;;;;;;30.04;29.73;98999.91;4390682;32;34403;-84
2022/07/28 03:23:40;;;;;;;;;;;;;;;30.15;29.53;99004.47;4390983;32;34743;-85
2022/07/28 03:26:10;;;;;;;;;;;;;;;30.12;29.72;98998.47;4377173;32;34429;-85
2022/07/28 03:28:37;;;;;;;;;;;;;;;30.16;29.70;99000.00;4377397;32;35032;-85
2022/07/28 03:31:05;;;;;;;;;;;;;;;30.04;29.97;99007.03;4391153;32;35009;-86
2022/07/28 03:33:32;;;;;;;;;;;;;;;29.81;30.40;99000.63;4377431;32;34349;-84
2022/07/28 03:36:02;;;;;;;;;;;;;;;29.84;30.48;99011.09;4377260;32;33779;-85
2022/07/28 03:38:32;;;;;;;;;;;;;;;29.81;30.59;99008.63;4376979;32;34277;-84
2022/07/28 03:40:59;;;;;;;;;;;;;;;29.89;30.49;99011.66;4377051;32;34297;-84
2022/07/28 03:43:27;;;;;;;;;;;;;;;29.82;30.53;99013.03;4377082;32;35386;-85
2022/07/28 03:45:54;;;;;;;;;;;;;;;30.00;30.33;99010.87;4376998;32;33431;-87
2022/07/28 03:48:27;;;;;;;;;;;;;;;29.80;30.71;99022.97;4390440;32;35038;-85
2022/07/28 03:50:54;;;;;;;;;;;;;;;30.03;30.41;99016.88;4390853;32;34461;-85
2022/07/28 03:53:23;;;;;;;;;;;;;;;30.17;30.21;99018.63;4390634;32;34616;-84
2022/07/28 03:55:50;;;;;;;;;;;;;;;30.20;30.21;99022.91;4377022;32;33265;-85
2022/07/28 03:58:22;;;;;;;;;;;;;;;30.28;30.22;99026.75;4390403;32;34436;-85
2022/07/28 04:00:52;;;;;;;;;;;;;;;30.43;29.90;99024.81;4376940;32;35058;-85
2022/07/28 04:03:20;;;;;;;;;;;;;;;30.43;30.05;99024.81;4390544;32;35177;-85
2022/07/28 04:06:07;;;;;;;;;;;;;;;30.58;30.01;99036.25;4378984;32;34487;-85
2022/07/28 04:08:35;;;;;;;;;;;;;;;30.28;30.53;99034.78;4390110;32;34932;-86
2022/07/28 04:11:02;;;;;;;;;;;;;;;30.34;30.66;99038.81;4390562;32;34456;-84
2022/07/28 04:13:30;;;;;;;;;;;;;;;30.26;30.73;99038.50;4390456;32;34144;-86
2022/07/28 04:15:58;;;;;;;;;;;;;;;29.99;31.38;99043.94;4390343;32;34412;-85
2022/07/28 04:18:26;;;;;;;;;;;;;;;29.80;31.63;99041.66;4390220;32;35052;-85
2022/07/28 04:20:54;;;;;;;;;;;;;;;30.11;30.76;99039.56;4390508;32;34409;-85
2022/07/28 04:23:22;;;;;;;;;;;;;;;29.69;31.56;99047.75;4377049;32;35373;-85
2022/07/28 04:25:50;;;;;;;;;;;;;;;30.10;30.95;99037.84;4390403;32;33768;-84
2022/07/28 04:28:17;;;;;;;;;;;;;;;30.12;30.66;99041.25;4389988;32;33836;-84
2022/07/28 04:30:44;;;;;;;;;;;;;;;30.28;30.15;99047.28;4390119;32;34420;-85
2022/07/28 04:33:12;;;;;;;;;;;;;;;30.18;30.44;99043.53;4390285;32;35269;-85
2022/07/28 04:35:39;;;;;;;;;;;;;;;28.44;33.66;99046.03;4390155;32;33451;-85
2022/07/28 04:38:07;;;;;;;;;;;;;;;29.97;31.07;99043.19;4389901;32;34236;-85
2022/07/28 04:40:34;;;;;;;;;;;;;;;29.47;32.15;99044.78;4390053;32;34318;-85
2022/07/28 04:43:02;;;;;;;;;;;;;;;30.23;31.21;99050.31;4389926;32;34163;-85
2022/07/28 04:45:30;;;;;;;;;;;;;;;30.21;31.63;99054.03;4389855;32;32809;-84
2022/07/28 04:47:57;;;;;;;;;;;;;;;30.12;31.73;99046.59;4391419;32;34791;-86
2022/07/28 04:50:25;;;;;;;;;;;;;;;30.41;31.09;99058.81;4392000;32;34422;-86
2022/07/28 04:52:57;;;;;;;;;;;;;;;30.72;31.04;99048.59;4391894;32;34520;-85
2022/07/28 04:55:25;;;;;;;;;;;;;;;28.69;33.49;99049.84;4392031;32;34754;-84
2022/07/28 04:57:54;;;;;;;;;;;;;;;29.91;31.75;99054.31;4391315;32;33820;-85
2022/07/28 05:00:22;;;;;;;;;;;;;;;30.29;31.32;99054.34;4391786;32;35414;-86
2022/07/28 05:02:50;;;;;;;;;;;;;;;30.87;30.78;99049.34;4378242;32;34626;-85
2022/07/28 05:05:17;;;;;;;;;;;;;;;30.65;31.47;99053.56;4391848;32;34088;-86
2022/07/28 05:07:45;;;;;;;;;;;;;;;30.59;31.32;99056.66;4391190;32;34373;-85
2022/07/28 05:10:12;;;;;;;;;;;;;;;31.00;30.70;99051.03;4391681;32;34079;-86
2022/07/28 05:12:39;;;;;;;;;;;;;;;30.57;31.64;99060.41;4390555;32;33961;-87
2022/07/28 05:15:07;;;;;;;;;;;;;;;30.86;30.80;99053.00;4391516;32;33942;-85
2022/07/28 05:17:35;;;;;;;;;;;;;;;30.12;31.88;99062.66;4391535;32;33944;-85
2022/07/28 05:20:03;;;;;;;;;;;;;;;29.12;33.03;99065.78;4378265;32;34025;-85
2022/07/28 05:22:43;;;;;;;;;;;;;;;30.29;31.43;99062.38;4391752;32;34412;-85
2022/07/28 05:25:14;;;;;;;;;;;;;;;29.46;33.26;99062.63;4391344;32;34181;-86
2022/07/28 05:27:41;;;;;;;;;;;;;;;30.76;31.64;99069.75;4391758;32;33672;-86
2022/07/28 05:30:09;;;;;;;;;;;;;;;30.59;31.06;99078.06;4391586;32;34500;-86
2022/07/28 05:32:36;;;;;;;;;;;;;;;29.55;33.61;99075.38;4391534;32;34239;-85
2022/07/28 05:35:04;;;;;;;;;;;;;;;29.50;34.19;99082.81;4391246;32;33739;-85
2022/07/28 05:37:34;;;;;;;;;;;;;;;30.68;30.81;99074.72;4391633;32;34268;-85
2022/07/28 05:40:03;;;;;;;;;;;;;;;30.54;31.31;99086.44;4391590;32;34108;-85
2022/07/28 05:42:34;;;;;;;;;;;;;;;29.33;33.80;99093.78;4377934;32;34116;-85
2022/07/28 05:45:02;;;;;;;;;;;;;;;30.08;32.61;99087.88;4390940;32;34353;-85
2022/07/28 05:47:44;;;;;;;;;;;;;;;30.39;32.27;99086.66;4391630;32;33717;-85
2022/07/28 05:50:12;;;;;;;;;;;;;;;29.19;34.19;99093.81;4391607;32;35105;-85
2022/07/28 05:52:39;;;;;;;;;;;;;;;30.39;32.29;99092.88;4377863;32;34322;-85
2022/07/28 05:55:07;;;;;;;;;;;;;;;30.18;32.90;99100.53;4391257;32;33502;-86
2022/07/28 05:57:35;;;;;;;;;;;;;;;29.37;34.87;99099.78;4391244;32;33821;-85
2022/07/28 06:00:03;;;;;;;;;;;;;;;29.96;33.64;99095.78;4377837;32;34337;-85
2022/07/28 06:02:39;;;;;;;;;;;;;;;30.57;32.61;99105.91;4391648;32;34958;-84
2022/07/28 06:05:06;;;;;;;;;;;;;;;29.21;35.37;99106.12;4377123;32;34368;-86
2022/07/28 06:07:34;;;;;;;;;;;;;;;29.05;36.13;99114.22;4391316;32;34970;-86
2022/07/28 06:10:11;;;;;;;;;;;;;;;29.71;34.84;99107.28;4391366;32;34289;-85
2022/07/28 06:12:39;;;;;;;;;;;;;;;30.04;34.46;99109.50;4391033;32;34390;-85
2022/07/28 06:15:07;;;;;;;;;;;;;;;29.73;34.86;99112.53;4391090;32;33194;-85
2022/07/28 06:17:34;;;;;;;;;;;;;;;29.92;35.02;99121.00;4391374;32;35054;-86
2022/07/28 06:20:01;;;;;;;;;;;;;;;30.78;33.36;99115.97;4391238;32;34151;-85
2022/07/28 06:22:35;;;;;;;;;;;;;;;30.44;33.97;99114.78;4391322;32;35381;-85
2022/07/28 06:25:02;;;;;;;;;;;;;;;30.44;34.05;99112.13;4376884;32;34765;-85
2022/07/28 06:27:29;;;;;;;;;;;;;;;30.44;34.37;99122.81;4391132;32;35553;-85
2022/07/28 06:29:57;;;;;;;;;;;;;;;30.83;33.35;99126.34;4391674;32;34129;-84
2022/07/28 06:32:24;;;;;;;;;;;;;;;30.87;33.22;99130.50;4391186;32;34176;-85
2022/07/28 06:34:51;;;;;;;;;;;;;;;30.19;34.24;99133.50;4391118;32;33114;-86
2022/07/28 06:37:18;;;;;;;;;;;;;;;30.74;32.42;99135.88;4391269;32;34684;-86
2022/07/28 06:39:46;;;;;;;;;;;;;;;30.08;33.00;99125.31;4391190;32;34447;-86
2022/07/28 06:42:13;;;;;;;;;;;;;;;30.75;33.13;99126.88;4391067;32;34338;-85
2022/07/28 06:44:40;;;;;;;;;;;;;;;30.81;32.53;99130.13;4362521;32;33555;-85
2022/07/28 06:47:25;;;;;;;;;;;;;;;31.73;30.10;99121.56;4376334;32;35448;-86
2022/07/28 06:49:52;;;;;;;;;;;;;;;30.85;31.23;99134.28;4376441;32;34407;-86
2022/07/28 06:52:20;;;;;;;;;;;;;;;32.50;28.84;99129.16;4375433;32;34221;-85
2022/07/28 06:54:50;;;;;;;;;;;;;;;32.75;28.15;99128.91;4375011;32;33839;-87
2022/07/28 06:57:18;;;;;;;;;;;;;;;32.84;28.25;99133.53;4375930;32;35348;-86
2022/07/28 06:59:46;;;;;;;;;;;;;;;31.62;29.50;99130.41;4374681;32;34495;-84
2022/07/28 07:02:14;;;;;;;;;;;;;;;32.41;28.95;99142.31;4376165;32;34351;-85
2022/07/28 07:04:43;;;;;;;;;;;;;;;32.11;29.02;99140.13;4386950;32;33617;-84
2022/07/28 07:07:11;;;;;;;;;;;;;;;31.40;30.07;99135.66;4390812;32;35110;-85
2022/07/28 07:09:43;;;;;;;;;;;;;;;31.96;29.25;99131.44;4390335;32;35295;-87
2022/07/28 07:12:10;;;;;;;;;;;;;;;31.53;30.29;99139.16;4365040;32;35209;-86
2022/07/28 07:14:38;;;;;;;;;;;;;;;32.76;28.35;99130.63;4390524;32;34403;-85
2022/07/28 07:17:05;;;;;;;;;;;;;;;32.34;28.55;99127.62;4390981;32;34021;-84
2022/07/28 07:19:32;;;;;;;;;;;;;;;32.38;29.29;99131.78;4390848;32;35283;-84
2022/07/28 07:22:00;;;;;;;;;;;;;;;32.03;30.35;99130.97;4390838;32;34379;-86
2022/07/28 07:24:27;;;;;;;;;;;;;;;31.87;29.43;99136.66;4390843;32;34121;-85
2022/07/28 07:26:54;;;;;;;;;;;;;;;32.85;28.47;99134.44;4390870;32;33730;-84
2022/07/28 07:29:22;;;;;;;;;;;;;;;33.45;27.06;99134.97;4390499;32;33918;-85
2022/07/28 07:31:49;;;;;;;;;;;;;;;33.04;27.42;99134.69;4390896;32;35382;-86
2022/07/28 07:34:19;;;;;;;;;;;;;;;32.36;27.68;99135.56;4391064;32;33289;-85
2022/07/28 07:36:46;;;;;;;;;;;;;;;32.53;28.18;99135.13;4390840;32;33823;-85
2022/07/28 07:39:14;;;;;;;;;;;;;;;33.20;27.70;99138.81;4390787;32;34495;-86
2022/07/28 07:41:41;;;;;;;;;;;;;;;31.18;28.95;99139.03;4377335;32;34050;-85
2022/07/28 07:44:09;;;;;;;;;;;;;;;31.58;29.04;99139.66;4390638;32;33430;-87
2022/07/28 07:46:37;;;;;;;;;;;;;;;33.15;26.55;99132.00;4390708;32;35056;-86
2022/07/28 07:49:04;;;;;;;;;;;;;;;33.48;26.35;99127.53;4390765;32;34137;-87
2022/07/28 07:51:33;;;;;;;;;;;;;;;31.15;28.43;99134.75;4390673;32;33876;-86
2022/07/28 07:54:00;;;;;;;;;;;;;;;31.32;29.26;99135.38;4390671;32;33841;-87
2022/07/28 07:56:28;;;;;;;;;;;;;;;32.05;28.12;99131.69;4390375;32;34179;-84
2022/07/28 07:58:56;;;;;;;;;;;;;;;33.31;26.85;99136.97;4389798;32;35196;-84
2022/07/28 08:01:30;;;;;;;;;;;;;;;33.03;26.80;99132.97;4390432;32;34353;-87
2022/07/28 08:04:08;;;;;;;;;;;;;;;32.52;28.40;99135.25;4390567;32;33689;-86
2022/07/28 08:06:35;;;;;;;;;;;;;;;33.07;27.01;99134.44;4389991;32;34833;-85
2022/07/28 08:09:05;;;;;;;;;;;;;;;32.10;27.97;99134.91;4390143;32;34169;-88
2022/07/28 08:11:33;;;;;;;;;;;;;;;32.00;27.82;99134.75;4389161;32;34088;-85
2022/07/28 08:14:00;;;;;;;;;;;;;;;31.54;28.91;99134.63;4390542;32;32805;-87
2022/07/28 08:16:27;;;;;;;;;;;;;;;32.03;28.29;99136.34;4390472;32;33634;-86
2022/07/28 08:18:57;;;;;;;;;;;;;;;31.60;28.67;99135.03;4389195;32;34341;-88
2022/07/28 08:21:24;;;;;;;;;;;;;;;31.32;29.48;99141.56;4387808;32;34749;-86
2022/07/28 08:23:54;;;;;;;;;;;;;;;33.02;27.43;99125.88;4376101;32;33343;-87
2022/07/28 08:26:22;;;;;;;;;;;;;;;32.02;29.18;99123.91;4383999;32;35899;-90
2022/07/28 08:28:49;;;;;;;;;;;;;;;31.57;29.47;99134.41;4389832;32;33566;-87
2022/07/28 08:31:20;;;;;;;;;;;;;;;32.23;28.62;99139.19;4376825;32;34420;-87
2022/07/28 08:33:48;;;;;;;;;;;;;;;32.31;28.06;99127.84;4390229;32;35062;-87
2022/07/28 08:36:20;;;;;;;;;;;;;;;31.81;28.84;99134.41;4390121;32;35192;-86
2022/07/28 08:38:48;;;;;;;;;;;;;;;32.56;27.60;99134.03;4389777;32;35393;-86
2022/07/28 08:41:17;;;;;;;;;;;;;;;33.28;27.32;99136.34;4390186;32;35340;-87
2022/07/28 08:43:44;;;;;;;;;;;;;;;32.39;27.38;99141.56;4376629;32;33160;-85
2022/07/28 08:46:11;;;;;;;;;;;;;;;32.39;27.08;99132.63;4376282;32;34306;-86
2022/07/28 08:48:39;;;;;;;;;;;;;;;32.03;28.79;99131.81;4376360;32;34388;-86
2022/07/28 08:51:08;;;;;;;;;;;;;;;32.59;27.98;99133.81;4376197;32;34586;-86
2022/07/28 08:53:36;;;;;;;;;;;;;;;32.68;27.19;99127.69;4389750;32;33589;-89
2022/07/28 08:56:07;;;;;;;;;;;;;;;32.71;26.70;99127.47;4389948;32;34571;-85
2022/07/28 08:58:35;;;;;;;;;;;;;;;32.63;26.86;99124.53;4389863;32;34116;-86
2022/07/28 09:01:03;;;;;;;;;;;;;;;33.48;25.49;99126.69;4376141;32;35405;-88
2022/07/28 09:03:30;;;;;;;;;;;;;;;32.82;25.33;99126.63;4390010;32;32753;-86
2022/07/28 09:05:57;;;;;;;;;;;;;;;33.17;25.64;99129.16;4389790;32;33680;-87
2022/07/28 09:08:25;;;;;;;;;;;;;;;33.29;24.59;99132.69;4375662;32;35300;-86
2022/07/28 09:10:52;;;;;;;;;;;;;;;33.74;24.72;99127.19;4389859;32;33862;-86
2022/07/28 09:13:20;;;;;;;;;;;;;;;32.83;26.42;99131.00;4376169;32;33445;-84
2022/07/28 09:15:47;;;;;;;;;;;;;;;32.97;26.11;99128.09;4375822;32;34305;-85
2022/07/28 09:18:15;;;;;;;;;;;;;;;33.63;24.66;99120.03;4389787;32;34313;-85
2022/07/28 09:20:43;;;;;;;;;;;;;;;32.51;26.35;99122.81;4375955;32;34799;-87
2022/07/28 09:23:12;;;;;;;;;;;;;;;33.82;24.72;99124.72;4389815;32;33297;-86
2022/07/28 09:26:07;;;;;;;;;;;;;;;34.18;23.81;99119.94;4389495;32;34016;-86
2022/07/28 09:28:49;;;;;;;;;;;;;;;33.33;25.23;99113.47;4389449;32;35431;-88
2022/07/28 09:31:16;;;;;;;;;;;;;;;33.24;24.92;99118.78;4375339;32;34805;-85
2022/07/28 09:33:54;;;;;;;;;;;;;;;33.47;23.39;99115.06;4377527;32;34178;-86
2022/07/28 09:36:21;;;;;;;;;;;;;;;34.00;23.49;99100.84;4377864;32;34013;-86
2022/07/28 09:38:49;;;;;;;;;;;;;;;34.20;22.72;99112.56;4391503;32;34509;-85
2022/07/28 09:41:22;;;;;;;;;;;;;;;34.42;22.66;99107.03;4391867;32;34384;-88
2022/07/28 09:43:50;;;;;;;;;;;;;;;34.24;23.54;99111.31;4378766;32;33271;-86
2022/07/28 09:46:22;;;;;;;;;;;;;;;33.85;23.82;99100.25;4391514;32;35208;-87
2022/07/28 09:48:54;;;;;;;;;;;;;;;33.97;23.97;99098.38;4378249;32;34513;-89
2022/07/28 09:51:24;;;;;;;;;;;;;;;34.28;22.79;99096.59;4391723;32;35139;-87
2022/07/28 09:53:52;;;;;;;;;;;;;;;33.55;24.48;99101.00;4377974;32;33390;-87
2022/07/28 09:56:22;;;;;;;;;;;;;;;33.90;23.83;99098.88;4391883;32;35144;-87
2022/07/28 09:58:56;;;;;;;;;;;;;;;34.56;22.82;99097.81;4391453;32;35274;-86
2022/07/28 10:01:24;;;;;;;;;;;;;;;35.28;23.26;99078.75;4391445;32;34585;-87
2022/07/28 10:03:56;;;;;;;;;;;;;;;35.27;23.26;99087.84;4391814;32;33724;-89
2022/07/28 10:06:26;;;;;;;;;;;;;;;34.83;22.46;99095.34;4388910;32;34677;-86
2022/07/28 10:08:54;;;;;;;;;;;;;;;34.14;22.82;99089.75;4391467;32;34169;-89
2022/07/28 10:11:28;;;;;;;;;;;;;;;35.10;22.31;99093.91;4363689;32;33963;-88
2022/07/28 10:14:02;;;;;;;;;;;;;;;34.49;22.73;99089.41;4377688;32;33342;-88
2022/07/28 10:16:34;;;;;;;;;;;;;;;34.69;23.18;99086.78;4377921;32;34395;-88
2022/07/28 10:19:02;;;;;;;;;;;;;;;34.70;23.40;99078.59;4392083;32;35298;-92
2022/07/28 10:21:30;;;;;;;;;;;;;;;33.98;23.59;99083.91;4378147;32;33842;-88
2022/07/28 10:24:05;;;;;;;;;;;;;;;34.43;23.43;99080.97;4377859;32;33330;-90
2022/07/28 10:26:37;;;;;;;;;;;;;;;34.63;23.41;99072.03;4377872;32;34973;-90
2022/07/28 10:29:07;;;;;;;;;;;;;;;34.86;23.05;99084.31;4377736;32;34537;-87
2022/07/28 10:31:40;;;;;;;;;;;;;;;34.58;22.89;99074.25;4391243;32;35082;-92
2022/07/28 10:34:08;;;;;;;;;;;;;;;34.22;23.38;99068.41;4376979;32;33490;-88
2022/07/28 10:36:42;;;;;;;;;;;;;;;34.83;22.85;99072.94;4391102;32;33875;-92
2022/07/28 10:39:14;;;;;;;;;;;;;;;34.84;22.67;99075.50;4391419;32;33514;-88
2022/07/28 10:41:42;;;;;;;;;;;;;;;34.67;23.18;99075.31;4377473;32;34128;-90
2022/07/28 10:44:12;;;;;;;;;;;;;;;35.52;22.72;99064.03;4390197;32;33651;-90
2022/07/28 10:46:41;;;;;;;;;;;;;;;35.71;21.96;99058.66;4391333;32;34942;-89
2022/07/28 10:49:09;;;;;;;;;;;;;;;34.96;22.71;99075.38;4391143;32;33957;-90
2022/07/28 10:51:38;;;;;;;;;;;;;;;35.09;22.57;99062.56;4391498;32;35242;-90
2022/07/28 10:54:35;;;;;;;;;;;;;;;35.43;21.92;99063.03;4379954;32;33306;-88
2022/07/28 10:57:14;;;;;;;;;;;;;;;35.16;22.79;99061.03;4364686;32;32565;-92
2022/07/28 11:00:01;;;;;;;;;;;;;;;35.84;21.58;99066.47;4374977;32;34075;-92
2022/07/28 11:02:51;;;;;;;;;;;;;;;34.98;22.54;99071.56;4376621;32;33999;-88
2022/07/28 11:05:33;;;;;;;;;;;;;;;35.42;23.03;99071.25;4390949;32;33524;-92
2022/07/28 11:08:01;;;;;;;;;;;;;;;36.35;21.27;99061.69;4391553;32;34173;-92
2022/07/28 11:10:29;;;;;;;;;;;;;;;35.15;22.85;99055.75;4377297;32;34194;-89
2022/07/28 11:12:57;;;;;;;;;;;;;;;36.45;21.01;99049.84;4390972;32;35166;-91
2022/07/28 11:15:31;;;;;;;;;;;;;;;37.00;20.29;99039.09;4385439;32;33880;-90
2022/07/28 11:18:08;;;;;;;;;;;;;;;36.82;20.69;99043.56;4390926;32;34285;-91
2022/07/28 11:21:05;;;;;;;;;;;;;;;35.96;22.04;99053.66;4390882;32;34126;-94
2022/07/28 11:23:52;;;;;;;;;;;;;;;35.57;21.67;99042.88;4379751;32;34523;-91
2022/07/28 11:26:19;;;;;;;;;;;;;;;36.62;20.73;99044.69;4377445;32;33282;-91
2022/07/28 11:28:56;;;;;;;;;;;;;;;36.93;19.98;99037.12;4390958;32;35101;-89
2022/07/28 11:31:42;;;;;;;;;;;;;;;37.01;20.57;99037.22;4390967;32;35148;-92
2022/07/28 11:34:13;;;;;;;;;;;;;;;36.16;20.94;99041.84;4390870;32;35105;-93
2022/07/28 11:36:56;;;;;;;;;;;;;;;36.58;21.22;99049.53;4390837;32;33786;-91
2022/07/28 11:39:24;;;;;;;;;;;;;;;36.62;20.82;99042.84;4390840;32;34471;-91
2022/07/28 11:41:52;;;;;;;;;;;;;;;36.86;20.11;99033.31;4390222;32;34437;-90
2022/07/28 11:44:26;;;;;;;;;;;;;;;37.08;19.95;99032.91;4377265;32;34611;-92
2022/07/28 11:46:53;;;;;;;;;;;;;;;37.05;21.13;99033.22;4390871;32;34628;-91
2022/07/28 11:49:21;;;;;;;;;;;;;;;37.02;19.80;99038.97;4390934;32;34393;-91
2022/07/28 11:52:08;;;;;;;;;;;;;;;36.83;20.11;99041.75;4390549;32;34368;-92
2022/07/28 11:54:36;;;;;;;;;;;;;;;36.72;20.83;99032.84;4391050;32;33864;-90
2022/07/28 11:57:04;;;;;;;;;;;;;;;36.03;21.09;99044.03;4390887;32;33098;-90
2022/07/28 11:59:41;;;;;;;;;;;;;;;36.27;20.86;99032.72;4366535;32;784265;-88
2022/07/28 12:02:08;;;;;;;;;;;;;;;36.22;21.03;99030.47;4391229;32;34090;-94
2022/07/28 12:04:36;;;;;;;;;;;;;;;35.72;21.70;99029.81;4391348;32;35509;-93
2022/07/28 12:07:03;;;;;;;;;;;;;;;36.02;20.75;99031.50;4390903;32;33610;-91
2022/07/28 12:09:31;;;;;;;;;;;;;;;36.10;21.52;99028.91;4390799;32;34417;-91
2022/07/28 12:12:08;;;;;;;;;;;;;;;35.95;21.75;99028.53;4389604;32;35129;-92
2022/07/28 12:14:37;;;;;;;;;;;;;;;36.08;21.16;99028.22;4390256;32;34979;-92
2022/07/28 12:17:06;;;;;;;;;;;;;;;36.06;21.03;99022.97;4376944;32;34481;-93
2022/07/28 12:19:33;;;;;;;;;;;;;;;36.46;20.29;99027.28;4390521;32;34234;-90
2022/07/28 12:22:03;;;;;;;;;;;;;;;35.92;21.36;99017.19;4389715;32;35077;-91
2022/07/28 12:24:32;;;;;;;;;;;;;;;36.25;21.24;99023.91;4376705;32;35218;-93
2022/07/28 12:27:12;;;;;;;;;;;;;;;36.18;21.00;99017.41;4390257;32;34459;-92
2022/07/28 12:29:42;;;;;;;;;;;;;;;36.42;20.46;99020.44;4390165;32;34387;-91
2022/07/28 12:32:09;;;;;;;;;;;;;;;36.75;20.18;99021.75;4376620;32;34236;-90
2022/07/28 12:34:38;;;;;;;;;;;;;;;36.39;20.85;99009.94;4391025;32;34342;-95
2022/07/28 12:37:08;;;;;;;;;;;;;;;35.69;21.62;99012.09;4377154;32;33665;-94
2022/07/28 12:39:38;;;;;;;;;;;;;;;35.06;22.42;99014.34;4376859;32;34944;-90
2022/07/28 12:42:07;;;;;;;;;;;;;;;35.88;20.86;99018.44;4376717;32;34192;-95
2022/07/28 12:44:35;;;;;;;;;;;;;;;36.04;21.24;99013.34;4391387;32;33715;-92
2022/07/28 12:47:02;;;;;;;;;;;;;;;36.12;21.22;99018.00;4378013;32;33813;-94
2022/07/28 12:49:30;;;;;;;;;;;;;;;36.08;21.21;99020.13;4376602;32;34026;-94
2022/07/28 12:51:59;;;;;;;;;;;;;;;36.08;21.37;99014.75;4390440;32;34134;-95
2022/07/28 12:54:35;;;;;;;;;;;;;;;36.16;21.38;99017.56;4390319;32;34132;-92
2022/07/28 12:57:02;;;;;;;;;;;;;;;36.33;21.08;99010.50;4390448;32;33721;-91
2022/07/28 12:59:32;;;;;;;;;;;;;;;36.95;20.35;99006.28;4390068;32;34150;-92
2022/07/28 13:02:01;;;;;;;;;;;;;;;36.46;21.31;99004.78;4389342;32;35328;-93
2022/07/28 13:04:36;;;;;;;;;;;;;;;36.36;21.75;99006.69;4376694;32;33886;-93